sensor_id;sensor_type;location;lat;lon;timestamp;pressure;altitude;pressure_sealevel;temperature;humidity
74103;BME280;62853;46.166;3.640;2023-03-23T00:01:26;100122.97;;;11.93;100.00
74103;BME280;62853;46.166;3.640;2023-03-23T00:03:55;100124.41;;;11.97;100.00
74103;BME280;62853;46.166;3.640;2023-03-23T00:06:26;100119.53;;;12.03;100.00
74103;BME280;62853;46.166;3.640;2023-03-23T00:08:53;100098.00;;;12.09;100.00
74103;BME280;62853;46.166;3.640;2023-03-23T00:11:28;100102.19;;;12.12;100.00
74103;BME280;62853;46.166;3.640;2023-03-23T00:13:55;100114.66;;;12.10;100.00
74103;BME280;62853;46.166;3.640;2023-03-23T00:16:24;100125.63;;;12.17;100.00
74103;BME280;62853;46.166;3.640;2023-03-23T00:19:02;100111.22;;;12.21;100.00
74103;BME280;62853;46.166;3.640;2023-03-23T00:21:32;100101.84;;;12.17;100.00
74103;BME280;62853;46.166;3.640;2023-03-23T00:26:29;100110.50;;;12.19;100.00
74103;BME280;62853;46.166;3.640;2023-03-23T00:28:59;100111.69;;;12.15;100.00
74103;BME280;62853;46.166;3.640;2023-03-23T00:31:25;100114.22;;;12.16;100.00
74103;BME280;62853;46.166;3.640;2023-03-23T00:33:56;100108.94;;;12.16;100.00
74103;BME280;62853;46.166;3.640;2023-03-23T00:36:21;100104.09;;;12.10;100.00
74103;BME280;62853;46.166;3.640;2023-03-23T00:38:48;100097.53;;;12.16;100.00
74103;BME280;62853;46.166;3.640;2023-03-23T00:41:13;100110.84;;;12.14;100.00
74103;BME280;62853;46.166;3.640;2023-03-23T00:43:40;100117.09;;;12.13;100.00
74103;BME280;62853;46.166;3.640;2023-03-23T00:46:06;100112.53;;;12.15;100.00
74103;BME280;62853;46.166;3.640;2023-03-23T00:48:36;100112.03;;;12.10;100.00
74103;BME280;62853;46.166;3.640;2023-03-23T00:51:10;100097.78;;;12.13;100.00
74103;BME280;62853;46.166;3.640;2023-03-23T00:53:37;100103.78;;;12.15;100.00
74103;BME280;62853;46.166;3.640;2023-03-23T00:56:03;100105.63;;;12.25;100.00
74103;BME280;62853;46.166;3.640;2023-03-23T00:58:28;100088.84;;;12.26;100.00
74103;BME280;62853;46.166;3.640;2023-03-23T01:00:54;100110.47;;;12.32;100.00
74103;BME280;62853;46.166;3.640;2023-03-23T01:03:19;100098.53;;;12.26;100.00
74103;BME280;62853;46.166;3.640;2023-03-23T01:05:46;100106.22;;;12.29;100.00
74103;BME280;62853;46.166;3.640;2023-03-23T01:08:17;100100.00;;;12.30;100.00
74103;BME280;62853;46.166;3.640;2023-03-23T01:10:44;100101.81;;;12.30;100.00
74103;BME280;62853;46.166;3.640;2023-03-23T01:13:10;100093.63;;;12.33;100.00
74103;BME280;62853;46.166;3.640;2023-03-23T01:15:36;100081.53;;;12.30;100.00
74103;BME280;62853;46.166;3.640;2023-03-23T01:18:01;100081.63;;;12.28;100.00
74103;BME280;62853;46.166;3.640;2023-03-23T01:20:27;100061.44;;;12.27;100.00
74103;BME280;62853;46.166;3.640;2023-03-23T01:22:54;100061.34;;;12.29;100.00
74103;BME280;62853;46.166;3.640;2023-03-23T01:25:29;100054.16;;;12.31;100.00
74103;BME280;62853;46.166;3.640;2023-03-23T01:27:56;100063.47;;;12.24;100.00
74103;BME280;62853;46.166;3.640;2023-03-23T01:30:22;100060.13;;;12.22;100.00
74103;BME280;62853;46.166;3.640;2023-03-23T01:32:47;100058.94;;;12.26;100.00
74103;BME280;62853;46.166;3.640;2023-03-23T01:35:13;100054.84;;;12.22;100.00
74103;BME280;62853;46.166;3.640;2023-03-23T01:37:39;100064.09;;;12.27;100.00
74103;BME280;62853;46.166;3.640;2023-03-23T01:40:04;100062.44;;;12.26;100.00
74103;BME280;62853;46.166;3.640;2023-03-23T01:42:32;100063.66;;;12.34;100.00
74103;BME280;62853;46.166;3.640;2023-03-23T01:47:46;100056.53;;;12.23;100.00
74103;BME280;62853;46.166;3.640;2023-03-23T01:50:11;100062.44;;;12.26;100.00
74103;BME280;62853;46.166;3.640;2023-03-23T01:52:37;100074.31;;;12.32;100.00
74103;BME280;62853;46.166;3.640;2023-03-23T01:55:03;100069.75;;;12.34;100.00
74103;BME280;62853;46.166;3.640;2023-03-23T01:57:29;100063.66;;;12.34;100.00
74103;BME280;62853;46.166;3.640;2023-03-23T01:59:57;100052.84;;;12.37;100.00
74103;BME280;62853;46.166;3.640;2023-03-23T02:02:25;100041.56;;;12.35;100.00
74103;BME280;62853;46.166;3.640;2023-03-23T02:04:55;100044.59;;;12.41;100.00
74103;BME280;62853;46.166;3.640;2023-03-23T02:07:23;100026.13;;;12.41;100.00
74103;BME280;62853;46.166;3.640;2023-03-23T02:09:50;100028.75;;;12.41;100.00
74103;BME280;62853;46.166;3.640;2023-03-23T02:12:16;100022.97;;;12.36;100.00
74103;BME280;62853;46.166;3.640;2023-03-23T02:14:41;100020.34;;;12.36;100.00
74103;BME280;62853;46.166;3.640;2023-03-23T02:17:10;100029.69;;;12.40;100.00
74103;BME280;62853;46.166;3.640;2023-03-23T02:39:23;100006.69;;;12.54;100.00
74103;BME280;62853;46.166;3.640;2023-03-23T02:41:56;99993.72;;;12.51;100.00
74103;BME280;62853;46.166;3.640;2023-03-23T02:44:24;99995.03;;;12.45;100.00
74103;BME280;62853;46.166;3.640;2023-03-23T02:46:55;99995.88;;;12.57;100.00
74103;BME280;62853;46.166;3.640;2023-03-23T02:49:23;100013.88;;;12.63;100.00
74103;BME280;62853;46.166;3.640;2023-03-23T02:51:51;100013.50;;;12.45;100.00
74103;BME280;62853;46.166;3.640;2023-03-23T02:54:18;100008.94;;;12.47;100.00
74103;BME280;62853;46.166;3.640;2023-03-23T02:56:45;100013.63;;;12.43;100.00
74103;BME280;62853;46.166;3.640;2023-03-23T02:59:12;100017.72;;;12.47;100.00
74103;BME280;62853;46.166;3.640;2023-03-23T03:04:17;100003.44;;;12.50;100.00
74103;BME280;62853;46.166;3.640;2023-03-23T03:07:18;100015.44;;;12.54;100.00
74103;BME280;62853;46.166;3.640;2023-03-23T03:09:52;100014.13;;;12.49;100.00
74103;BME280;62853;46.166;3.640;2023-03-23T03:15:11;100014.94;;;12.49;100.00
74103;BME280;62853;46.166;3.640;2023-03-23T03:17:41;100008.13;;;12.46;100.00
74103;BME280;62853;46.166;3.640;2023-03-23T03:20:10;100012.53;;;12.46;100.00
74103;BME280;62853;46.166;3.640;2023-03-23T03:22:41;100022.59;;;12.41;100.00
74103;BME280;62853;46.166;3.640;2023-03-23T03:25:10;100016.28;;;12.43;100.00
74103;BME280;62853;46.166;3.640;2023-03-23T03:27:39;100013.66;;;12.55;100.00
74103;BME280;62853;46.166;3.640;2023-03-23T03:30:09;100008.38;;;12.55;100.00
74103;BME280;62853;46.166;3.640;2023-03-23T03:32:41;100001.78;;;12.60;100.00
74103;BME280;62853;46.166;3.640;2023-03-23T03:35:09;100007.06;;;12.60;100.00
74103;BME280;62853;46.166;3.640;2023-03-23T03:37:35;100005.78;;;12.89;100.00
74103;BME280;62853;46.166;3.640;2023-03-23T03:40:07;100015.59;;;12.64;100.00
74103;BME280;62853;46.166;3.640;2023-03-23T03:42:38;100021.97;;;12.61;100.00
74103;BME280;62853;46.166;3.640;2023-03-23T03:45:06;100019.78;;;12.55;100.00
74103;BME280;62853;46.166;3.640;2023-03-23T03:47:32;100018.47;;;12.50;100.00
74103;BME280;62853;46.166;3.640;2023-03-23T03:49:58;100015.31;;;12.56;100.00
74103;BME280;62853;46.166;3.640;2023-03-23T03:52:23;100014.00;;;12.50;100.00
74103;BME280;62853;46.166;3.640;2023-03-23T03:54:49;100015.56;;;12.41;100.00
74103;BME280;62853;46.166;3.640;2023-03-23T03:57:14;100039.66;;;12.37;100.00
74103;BME280;62853;46.166;3.640;2023-03-23T03:59:40;100030.53;;;12.41;100.00
74103;BME280;62853;46.166;3.640;2023-03-23T04:02:05;100016.28;;;12.43;100.00
74103;BME280;62853;46.166;3.640;2023-03-23T04:04:31;100021.22;;;12.48;100.00
74103;BME280;62853;46.166;3.640;2023-03-23T04:06:56;100023.47;;;12.53;100.00
74103;BME280;62853;46.166;3.640;2023-03-23T04:09:22;100037.56;;;12.53;100.00
74103;BME280;62853;46.166;3.640;2023-03-23T04:11:48;100037.78;;;12.50;100.00
74103;BME280;62853;46.166;3.640;2023-03-23T04:14:13;100026.97;;;12.53;100.00
74103;BME280;62853;46.166;3.640;2023-03-23T04:16:38;100031.66;;;12.50;100.00
74103;BME280;62853;46.166;3.640;2023-03-23T04:19:04;100024.44;;;12.52;100.00
74103;BME280;62853;46.166;3.640;2023-03-23T04:21:29;100032.34;;;12.40;100.00
74103;BME280;62853;46.166;3.640;2023-03-23T04:23:55;100035.13;;;12.50;100.00
74103;BME280;62853;46.166;3.640;2023-03-23T04:26:25;100027.88;;;12.41;100.00
74103;BME280;62853;46.166;3.640;2023-03-23T04:28:50;100044.88;;;12.25;100.00
74103;BME280;62853;46.166;3.640;2023-03-23T04:31:17;100035.41;;;12.23;100.00
74103;BME280;62853;46.166;3.640;2023-03-23T04:33:42;100050.78;;;12.29;100.00
74103;BME280;62853;46.166;3.640;2023-03-23T04:36:08;100049.72;;;12.32;100.00
74103;BME280;62853;46.166;3.640;2023-03-23T04:38:33;100046.75;;;12.36;100.00
74103;BME280;62853;46.166;3.640;2023-03-23T04:40:59;100048.41;;;12.37;100.00
74103;BME280;62853;46.166;3.640;2023-03-23T04:43:28;100051.66;;;12.41;100.00
74103;BME280;62853;46.166;3.640;2023-03-23T04:45:58;100052.63;;;12.40;100.00
74103;BME280;62853;46.166;3.640;2023-03-23T04:48:26;100050.44;;;12.34;100.00
74103;BME280;62853;46.166;3.640;2023-03-23T04:50:52;100054.66;;;12.36;100.00
74103;BME280;62853;46.166;3.640;2023-03-23T04:53:18;100046.97;;;12.33;100.00
74103;BME280;62853;46.166;3.640;2023-03-23T04:55:44;100053.34;;;12.42;100.00
74103;BME280;62853;46.166;3.640;2023-03-23T04:58:10;100050.00;;;12.51;100.00
74103;BME280;62853;46.166;3.640;2023-03-23T05:00:37;100055.94;;;12.55;100.00
74103;BME280;62853;46.166;3.640;2023-03-23T05:03:03;100045.09;;;12.58;100.00
74103;BME280;62853;46.166;3.640;2023-03-23T05:05:29;100048.03;;;12.31;100.00
74103;BME280;62853;46.166;3.640;2023-03-23T05:07:56;100055.69;;;12.22;100.00
74103;BME280;62853;46.166;3.640;2023-03-23T05:10:22;100056.94;;;12.41;100.00
74103;BME280;62853;46.166;3.640;2023-03-23T05:12:47;100048.28;;;12.39;100.00
74103;BME280;62853;46.166;3.640;2023-03-23T05:15:14;100060.81;;;12.48;100.00
74103;BME280;62853;46.166;3.640;2023-03-23T05:17:41;100057.69;;;12.43;100.00
74103;BME280;62853;46.166;3.640;2023-03-23T05:20:11;100080.03;;;12.50;100.00
74103;BME280;62853;46.166;3.640;2023-03-23T05:22:38;100078.34;;;12.49;100.00
74103;BME280;62853;46.166;3.640;2023-03-23T05:25:04;100063.66;;;12.34;100.00
74103;BME280;62853;46.166;3.640;2023-03-23T05:27:31;100078.88;;;12.30;100.00
74103;BME280;62853;46.166;3.640;2023-03-23T05:29:58;100059.06;;;12.00;100.00
74103;BME280;62853;46.166;3.640;2023-03-23T05:32:25;100069.63;;;12.24;100.00
74103;BME280;62853;46.166;3.640;2023-03-23T05:34:55;100067.94;;;11.99;100.00
74103;BME280;62853;46.166;3.640;2023-03-23T05:37:21;100083.69;;;12.01;100.00
74103;BME280;62853;46.166;3.640;2023-03-23T05:39:47;100072.25;;;12.00;100.00
74103;BME280;62853;46.166;3.640;2023-03-23T05:42:15;100082.41;;;11.94;100.00
74103;BME280;62853;46.166;3.640;2023-03-23T05:44:40;100080.22;;;11.87;100.00
74103;BME280;62853;46.166;3.640;2023-03-23T05:47:06;100087.31;;;11.74;100.00
74103;BME280;62853;46.166;3.640;2023-03-23T05:49:31;100084.19;;;11.69;100.00
74103;BME280;62853;46.166;3.640;2023-03-23T05:51:57;100084.91;;;11.58;100.00
74103;BME280;62853;46.166;3.640;2023-03-23T05:54:23;100072.19;;;11.52;100.00
74103;BME280;62853;46.166;3.640;2023-03-23T05:56:49;100080.50;;;11.59;100.00
74103;BME280;62853;46.166;3.640;2023-03-23T05:59:14;100077.72;;;11.60;100.00
74103;BME280;62853;46.166;3.640;2023-03-23T06:01:40;100075.75;;;11.64;100.00
74103;BME280;62853;46.166;3.640;2023-03-23T06:04:05;100065.41;;;11.61;100.00
74103;BME280;62853;46.166;3.640;2023-03-23T06:06:31;100074.31;;;11.47;100.00
74103;BME280;62853;46.166;3.640;2023-03-23T06:08:57;100065.41;;;11.61;100.00
74103;BME280;62853;46.166;3.640;2023-03-23T06:11:24;100081.56;;;11.56;100.00
74103;BME280;62853;46.166;3.640;2023-03-23T06:13:51;100077.88;;;11.59;100.00
74103;BME280;62853;46.166;3.640;2023-03-23T06:16:16;100086.97;;;11.42;100.00
74103;BME280;62853;46.166;3.640;2023-03-23T06:18:42;100091.28;;;11.43;100.00
74103;BME280;62853;46.166;3.640;2023-03-23T06:21:09;100100.63;;;11.60;100.00
74103;BME280;62853;46.166;3.640;2023-03-23T06:23:34;100094.31;;;11.62;100.00
74103;BME280;62853;46.166;3.640;2023-03-23T06:26:03;100103.78;;;11.65;100.00
74103;BME280;62853;46.166;3.640;2023-03-23T06:28:30;100099.13;;;11.68;100.00
74103;BME280;62853;46.166;3.640;2023-03-23T06:30:59;100115.41;;;11.62;100.00
74103;BME280;62853;46.166;3.640;2023-03-23T06:33:25;100100.22;;;11.66;100.00
74103;BME280;62853;46.166;3.640;2023-03-23T06:35:50;100110.09;;;11.75;100.00
74103;BME280;62853;46.166;3.640;2023-03-23T06:38:16;100111.06;;;11.74;100.00
74103;BME280;62853;46.166;3.640;2023-03-23T06:40:42;100123.59;;;11.83;100.00
74103;BME280;62853;46.166;3.640;2023-03-23T06:43:11;100118.53;;;11.80;100.00
74103;BME280;62853;46.166;3.640;2023-03-23T06:45:36;100132.44;;;11.95;100.00
74103;BME280;62853;46.166;3.640;2023-03-23T06:48:02;100134.97;;;11.97;100.00
74103;BME280;62853;46.166;3.640;2023-03-23T06:50:27;100128.66;;;11.99;100.00
74103;BME280;62853;46.166;3.640;2023-03-23T06:52:53;100141.59;;;12.02;100.00
74103;BME280;62853;46.166;3.640;2023-03-23T06:55:18;100145.44;;;11.98;100.00
74103;BME280;62853;46.166;3.640;2023-03-23T06:57:44;100141.84;;;11.86;100.00
74103;BME280;62853;46.166;3.640;2023-03-23T07:00:11;100137.97;;;11.79;100.00
74103;BME280;62853;46.166;3.640;2023-03-23T07:02:39;100143.66;;;11.86;100.00
74103;BME280;62853;46.166;3.640;2023-03-23T07:05:06;100121.56;;;11.87;100.00
74103;BME280;62853;46.166;3.640;2023-03-23T07:07:32;100129.72;;;11.84;100.00
74103;BME280;62853;46.166;3.640;2023-03-23T07:09:58;100126.94;;;11.85;100.00
74103;BME280;62853;46.166;3.640;2023-03-23T07:12:24;100128.56;;;11.75;100.00
74103;BME280;62853;46.166;3.640;2023-03-23T07:14:49;100141.66;;;11.77;100.00
74103;BME280;62853;46.166;3.640;2023-03-23T07:17:15;100145.97;;;11.78;100.00
74103;BME280;62853;46.166;3.640;2023-03-23T07:19:43;100144.50;;;11.73;100.00
74103;BME280;62853;46.166;3.640;2023-03-23T07:22:08;100147.03;;;11.75;100.00
74103;BME280;62853;46.166;3.640;2023-03-23T07:24:34;100156.31;;;11.81;100.00
74103;BME280;62853;46.166;3.640;2023-03-23T07:27:00;100156.03;;;11.72;100.00
74103;BME280;62853;46.166;3.640;2023-03-23T07:29:26;100141.75;;;11.75;100.00
74103;BME280;62853;46.166;3.640;2023-03-23T07:31:53;100141.75;;;11.75;100.00
74103;BME280;62853;46.166;3.640;2023-03-23T07:34:18;100144.75;;;11.70;100.00
74103;BME280;62853;46.166;3.640;2023-03-23T07:36:44;100152.31;;;11.75;100.00
74103;BME280;62853;46.166;3.640;2023-03-23T07:39:11;100161.19;;;11.61;100.00
74103;BME280;62853;46.166;3.640;2023-03-23T07:41:37;100230.00;;;11.45;100.00
74103;BME280;62853;46.166;3.640;2023-03-23T07:44:03;100228.19;;;11.20;100.00
74103;BME280;62853;46.166;3.640;2023-03-23T07:46:28;100213.75;;;10.86;100.00
74103;BME280;62853;46.166;3.640;2023-03-23T07:48:54;100201.59;;;10.29;100.00
74103;BME280;62853;46.166;3.640;2023-03-23T07:51:19;100206.25;;;10.11;100.00
74103;BME280;62853;46.166;3.640;2023-03-23T07:53:45;100200.25;;;10.09;100.00
74103;BME280;62853;46.166;3.640;2023-03-23T07:56:12;100206.72;;;10.03;100.00
74103;BME280;62853;46.166;3.640;2023-03-23T07:58:42;100214.34;;;10.08;100.00
74103;BME280;62853;46.166;3.640;2023-03-23T08:01:09;100211.53;;;10.11;100.00
74103;BME280;62853;46.166;3.640;2023-03-23T08:03:35;100225.25;;;10.16;100.00
74103;BME280;62853;46.166;3.640;2023-03-23T08:06:00;100232.66;;;10.09;100.00
74103;BME280;62853;46.166;3.640;2023-03-23T08:08:26;100237.06;;;10.23;100.00
74103;BME280;62853;46.166;3.640;2023-03-23T08:10:51;100240.94;;;10.17;100.00
74103;BME280;62853;46.166;3.640;2023-03-23T08:13:17;100249.84;;;10.15;100.00
74103;BME280;62853;46.166;3.640;2023-03-23T08:15:43;100258.63;;;10.15;100.00
74103;BME280;62853;46.166;3.640;2023-03-23T08:18:10;100258.31;;;10.20;100.00
74103;BME280;62853;46.166;3.640;2023-03-23T08:20:36;100266.00;;;10.23;100.00
74103;BME280;62853;46.166;3.640;2023-03-23T08:23:02;100281.63;;;10.26;100.00
74103;BME280;62853;46.166;3.640;2023-03-23T08:25:29;100269.59;;;10.22;100.00
74103;BME280;62853;46.166;3.640;2023-03-23T08:27:57;100276.06;;;10.31;100.00
74103;BME280;62853;46.166;3.640;2023-03-23T08:30:23;100266.38;;;10.31;100.00
74103;BME280;62853;46.166;3.640;2023-03-23T08:32:51;100255.28;;;10.40;100.00
74103;BME280;62853;46.166;3.640;2023-03-23T08:35:18;100271.16;;;10.53;100.00
74103;BME280;62853;46.166;3.640;2023-03-23T08:37:44;100265.97;;;10.52;100.00
74103;BME280;62853;46.166;3.640;2023-03-23T08:40:12;100257.34;;;10.50;100.00
74103;BME280;62853;46.166;3.640;2023-03-23T08:42:42;100272.22;;;10.51;100.00
74103;BME280;62853;46.166;3.640;2023-03-23T08:45:10;100278.69;;;10.59;100.00
74103;BME280;62853;46.166;3.640;2023-03-23T08:47:37;100278.72;;;10.72;100.00
74103;BME280;62853;46.166;3.640;2023-03-23T08:50:04;100278.03;;;10.83;100.00
74103;BME280;62853;46.166;3.640;2023-03-23T08:52:30;100257.69;;;10.85;100.00
74103;BME280;62853;46.166;3.640;2023-03-23T08:54:55;100252.44;;;10.85;100.00
74103;BME280;62853;46.166;3.640;2023-03-23T08:57:22;100261.81;;;10.89;100.00
74103;BME280;62853;46.166;3.640;2023-03-23T08:59:48;100238.31;;;10.86;100.00
74103;BME280;62853;46.166;3.640;2023-03-23T09:02:14;100256.34;;;10.92;100.00
74103;BME280;62853;46.166;3.640;2023-03-23T09:04:40;100270.38;;;10.93;100.00
74103;BME280;62853;46.166;3.640;2023-03-23T09:07:09;100272.69;;;10.97;100.00
74103;BME280;62853;46.166;3.640;2023-03-23T09:09:34;100272.59;;;10.99;100.00
74103;BME280;62853;46.166;3.640;2023-03-23T09:12:00;100276.94;;;11.00;100.00
74103;BME280;62853;46.166;3.640;2023-03-23T09:14:26;100276.75;;;11.03;100.00
74103;BME280;62853;46.166;3.640;2023-03-23T09:16:52;100288.00;;;11.05;100.00
74103;BME280;62853;46.166;3.640;2023-03-23T09:19:17;100276.88;;;10.87;100.00
74103;BME280;62853;46.166;3.640;2023-03-23T09:21:46;100280.97;;;10.78;100.00
74103;BME280;62853;46.166;3.640;2023-03-23T09:24:11;100269.50;;;10.79;100.00
74103;BME280;62853;46.166;3.640;2023-03-23T09:26:37;100275.34;;;10.70;100.00
74103;BME280;62853;46.166;3.640;2023-03-23T09:29:03;100273.44;;;10.72;100.00
74103;BME280;62853;46.166;3.640;2023-03-23T09:31:28;100262.91;;;10.72;100.00
74103;BME280;62853;46.166;3.640;2023-03-23T09:33:56;100267.16;;;10.75;100.00
74103;BME280;62853;46.166;3.640;2023-03-23T09:36:24;100272.22;;;10.78;100.00
74103;BME280;62853;46.166;3.640;2023-03-23T09:38:51;100273.66;;;10.96;100.00
74103;BME280;62853;46.166;3.640;2023-03-23T09:46:50;100297.78;;;11.30;100.00
74103;BME280;62853;46.166;3.640;2023-03-23T09:49:21;100298.75;;;11.55;100.00
74103;BME280;62853;46.166;3.640;2023-03-23T09:51:57;100291.19;;;11.76;100.00
74103;BME280;62853;46.166;3.640;2023-03-23T09:54:28;100277.25;;;11.87;100.00
74103;BME280;62853;46.166;3.640;2023-03-23T09:56:58;100275.78;;;12.08;100.00
74103;BME280;62853;46.166;3.640;2023-03-23T09:59:44;100265.22;;;12.21;100.00
74103;BME280;62853;46.166;3.640;2023-03-23T10:02:27;100268.38;;;12.26;100.00
74103;BME280;62853;46.166;3.640;2023-03-23T10:04:56;100277.44;;;12.35;100.00
74103;BME280;62853;46.166;3.640;2023-03-23T10:07:27;100269.28;;;12.75;100.00
74103;BME280;62853;46.166;3.640;2023-03-23T10:09:58;100272.34;;;13.17;100.00
74103;BME280;62853;46.166;3.640;2023-03-23T10:13:00;100288.00;;;13.67;100.00
74103;BME280;62853;46.166;3.640;2023-03-23T10:15:30;100284.41;;;13.91;100.00
74103;BME280;62853;46.166;3.640;2023-03-23T10:18:33;100280.34;;;13.98;100.00
74103;BME280;62853;46.166;3.640;2023-03-23T10:21:00;100280.94;;;14.13;100.00
74103;BME280;62853;46.166;3.640;2023-03-23T10:23:41;100290.09;;;14.20;100.00
74103;BME280;62853;46.166;3.640;2023-03-23T10:29:01;100288.16;;;14.11;100.00
74103;BME280;62853;46.166;3.640;2023-03-23T10:31:37;100279.88;;;14.27;100.00
74103;BME280;62853;46.166;3.640;2023-03-23T10:34:10;100291.88;;;14.42;100.00
74103;BME280;62853;46.166;3.640;2023-03-23T10:36:50;100287.06;;;13.91;100.00
74103;BME280;62853;46.166;3.640;2023-03-23T10:39:20;100281.66;;;13.81;100.00
74103;BME280;62853;46.166;3.640;2023-03-23T10:41:47;100297.19;;;13.97;100.00
74103;BME280;62853;46.166;3.640;2023-03-23T10:44:20;100280.22;;;14.00;100.00
74103;BME280;62853;46.166;3.640;2023-03-23T10:46:58;100288.41;;;13.97;100.00
74103;BME280;62853;46.166;3.640;2023-03-23T10:49:27;100278.28;;;13.79;100.00
74103;BME280;62853;46.166;3.640;2023-03-23T10:55:00;100278.91;;;14.05;100.00
74103;BME280;62853;46.166;3.640;2023-03-23T10:57:29;100272.41;;;14.21;100.00
74103;BME280;62853;46.166;3.640;2023-03-23T11:00:02;100275.75;;;14.45;100.00
74103;BME280;62853;46.166;3.640;2023-03-23T11:02:36;100275.34;;;14.50;100.00
74103;BME280;62853;46.166;3.640;2023-03-23T11:05:11;100275.50;;;14.60;100.00
74103;BME280;62853;46.166;3.640;2023-03-23T11:07:38;100270.19;;;14.60;100.00
74103;BME280;62853;46.166;3.640;2023-03-23T11:10:34;100281.97;;;14.67;100.00
74103;BME280;62853;46.166;3.640;2023-03-23T11:13:02;100286.31;;;14.79;100.00
74103;BME280;62853;46.166;3.640;2023-03-23T11:15:37;100295.56;;;14.85;100.00
74103;BME280;62853;46.166;3.640;2023-03-23T11:18:08;100274.75;;;14.69;100.00
74103;BME280;62853;46.166;3.640;2023-03-23T11:20:44;100279.84;;;14.61;100.00
74103;BME280;62853;46.166;3.640;2023-03-23T11:23:46;100276.69;;;14.67;100.00
74103;BME280;62853;46.166;3.640;2023-03-23T11:28:51;100280.47;;;14.85;100.00
74103;BME280;62853;46.166;3.640;2023-03-23T11:31:23;100285.19;;;15.14;100.00
74103;BME280;62853;46.166;3.640;2023-03-23T11:36:20;100300.19;;;15.57;100.00
74103;BME280;62853;46.166;3.640;2023-03-23T11:38:53;100296.81;;;15.55;100.00
74103;BME280;62853;46.166;3.640;2023-03-23T11:41:22;100293.00;;;15.48;100.00
74103;BME280;62853;46.166;3.640;2023-03-23T11:43:51;100297.78;;;15.54;100.00
74103;BME280;62853;46.166;3.640;2023-03-23T11:52:23;100312.50;;;15.05;100.00
74103;BME280;62853;46.166;3.640;2023-03-23T11:55:01;100294.38;;;15.10;100.00
74103;BME280;62853;46.166;3.640;2023-03-23T11:57:29;100285.47;;;15.32;100.00
74103;BME280;62853;46.166;3.640;2023-03-23T11:59:56;100280.00;;;15.45;100.00
74103;BME280;62853;46.166;3.640;2023-03-23T12:10:58;100268.88;;;16.03;100.00
74103;BME280;62853;46.166;3.640;2023-03-23T12:16:27;100268.38;;;16.19;100.00
74103;BME280;62853;46.166;3.640;2023-03-23T12:19:01;100281.25;;;16.24;100.00
74103;BME280;62853;46.166;3.640;2023-03-23T12:21:47;100274.06;;;16.05;100.00
74103;BME280;62853;46.166;3.640;2023-03-23T12:41:04;100255.63;;;16.13;100.00
74103;BME280;62853;46.166;3.640;2023-03-23T12:49:10;100240.19;;;16.47;100.00
74103;BME280;62853;46.166;3.640;2023-03-23T12:51:55;100236.16;;;16.63;100.00
74103;BME280;62853;46.166;3.640;2023-03-23T12:54:46;100235.34;;;16.72;100.00
74103;BME280;62853;46.166;3.640;2023-03-23T13:00:56;100238.53;;;16.66;100.00
74103;BME280;62853;46.166;3.640;2023-03-23T13:06:00;100242.84;;;16.47;100.00
74103;BME280;62853;46.166;3.640;2023-03-23T13:08:41;100241.84;;;16.39;100.00
74103;BME280;62853;46.166;3.640;2023-03-23T13:11:18;100240.75;;;16.41;100.00
74103;BME280;62853;46.166;3.640;2023-03-23T13:13:47;100241.88;;;16.48;100.00
74103;BME280;62853;46.166;3.640;2023-03-23T13:19:17;100226.50;;;16.52;100.00
74103;BME280;62853;46.166;3.640;2023-03-23T13:22:01;100220.75;;;16.47;100.00
74103;BME280;62853;46.166;3.640;2023-03-23T13:24:30;100218.50;;;16.52;100.00
74103;BME280;62853;46.166;3.640;2023-03-23T13:26:58;100213.34;;;16.50;100.00
74103;BME280;62853;46.166;3.640;2023-03-23T13:29:26;100216.25;;;16.47;100.00
74103;BME280;62853;46.166;3.640;2023-03-23T13:32:05;100210.78;;;16.29;100.00
74103;BME280;62853;46.166;3.640;2023-03-23T13:34:31;100202.41;;;16.24;100.00
74103;BME280;62853;46.166;3.640;2023-03-23T13:37:03;100216.38;;;16.26;100.00
74103;BME280;62853;46.166;3.640;2023-03-23T13:39:38;100212.72;;;16.17;100.00
74103;BME280;62853;46.166;3.640;2023-03-23T13:45:19;100213.81;;;16.15;100.00
74103;BME280;62853;46.166;3.640;2023-03-23T13:47:46;100203.00;;;15.97;100.00
74103;BME280;62853;46.166;3.640;2023-03-23T13:50:43;100200.88;;;15.91;100.00
74103;BME280;62853;46.166;3.640;2023-03-23T13:53:25;100213.47;;;15.89;100.00
74103;BME280;62853;46.166;3.640;2023-03-23T13:56:07;100219.69;;;15.78;100.00
74103;BME280;62853;46.166;3.640;2023-03-23T13:58:50;100247.78;;;15.59;100.00
74103;BME280;62853;46.166;3.640;2023-03-23T14:01:37;100238.56;;;15.12;100.00
74103;BME280;62853;46.166;3.640;2023-03-23T14:04:07;100250.97;;;14.12;100.00
74103;BME280;62853;46.166;3.640;2023-03-23T14:06:36;100265.63;;;13.25;100.00
74103;BME280;62853;46.166;3.640;2023-03-23T14:09:31;100252.19;;;12.92;100.00
74103;BME280;62853;46.166;3.640;2023-03-23T14:12:04;100250.81;;;12.87;100.00
74103;BME280;62853;46.166;3.640;2023-03-23T14:14:48;100255.09;;;12.76;100.00
74103;BME280;62853;46.166;3.640;2023-03-23T14:17:29;100251.63;;;12.76;100.00
74103;BME280;62853;46.166;3.640;2023-03-23T14:19:57;100230.59;;;12.74;100.00
74103;BME280;62853;46.166;3.640;2023-03-23T14:22:35;100244.41;;;12.78;100.00
74103;BME280;62853;46.166;3.640;2023-03-23T14:25:10;100249.59;;;12.79;100.00
74103;BME280;62853;46.166;3.640;2023-03-23T14:27:36;100259.22;;;12.80;100.00
74103;BME280;62853;46.166;3.640;2023-03-23T14:30:14;100249.69;;;12.78;100.00